Airfield :
LOGIN :

Register | Disclaimer

   EN    FR    IT 

 










Legend :    VFR   Marginal VFR   IFR   Intensive IFR   Very Intensive IFR
Visi :
Ceiling :
>= 8 km
>= 3000ft
5 to 8 km
1000 to 3000 ft
1500m to 5 km
500 to 1000 ft
800 to 1500m
200 to 500 ft
< 800m
< 200 ft
Symbols :   Thunderstorms  Fog  Heavy snow  Heavy precipitations  Wind > 20 kt
SIGMETs :     Misc.  Thunderstorms  Icing  Turbulence  Mountain Waves  Volcanic Ashes







- Airport Elevation : 626 ft
- IATA code : CRA


LRCV - Craiova

CURRENT METAR :
  • 230330Z 29004KT 2000 BR NSC 04/04 Q1021

EXPIRED METARs :
  • 230300Z 33002KT 3000 BR NSC 05/05 Q1021
  • 230230Z 34003KT 4000 BR NSC 05/05 Q1021
  • 230200Z 33001KT 3000 BR NSC 06/05 Q1021
  • 230130Z 33001KT 5000 BR NSC 06/05 Q1021
  • 230100Z 32002KT 5000 BR NSC 06/05 Q1022

TAF TAF LRCV
Valid from the 23 at 03:00 until the 23 at 12:00 UTC


230200Z 2303/2312 VRB04KT 5000 BR NSC
TEMPO 2303/2305 1500 BR
BECMG 2305/2307 9999 NSW
BECMG 2308/2310 26010KT
No reported NOTAMs for that airfield.



MET'MAP, your aeronautical weather chart ! - Copyright ORBIFLY December 2007 - Disclaimer

ORBIFLY MET'MAP TEAM :

Programming & Development : Alexandra Zaïnal
Concept & Development : Baudouin d'Aumeries
Co-Development & Prog : Marc-Olivier Méhu
Technical & hardware support : Manuel Goepfert

Contact : metmap@orbifly.com




SOURCES & CREDITS :

   NOAA